createdAt,value
2024-04-14T00:00:06.568Z,3.70
2024-04-14T00:00:26.539Z,3.60
2024-04-14T00:00:36.671Z,3.40
2024-04-14T00:00:47.257Z,3.40
2024-04-14T00:00:56.536Z,4.10
2024-04-14T00:01:06.627Z,7.00
2024-04-14T00:01:16.516Z,7.10
2024-04-14T00:01:26.563Z,7.00
2024-04-14T00:01:46.539Z,4.50
2024-04-14T00:01:56.550Z,4.60
2024-04-14T00:02:06.576Z,4.60
2024-04-14T00:02:16.476Z,4.60
2024-04-14T00:02:26.506Z,11.50
2024-04-14T00:02:37.246Z,11.40
2024-04-14T00:02:46.568Z,8.00
2024-04-14T00:03:06.496Z,2.60
2024-04-14T00:03:16.569Z,2.60
2024-04-14T00:03:26.566Z,4.20
2024-04-14T00:03:36.497Z,4.50
2024-04-14T00:03:46.565Z,6.20
2024-04-14T00:03:56.511Z,6.40
2024-04-14T00:04:17.499Z,4.40
2024-04-14T00:04:26.567Z,4.90
2024-04-14T00:04:36.668Z,4.80
2024-04-14T00:04:46.731Z,7.20
2024-04-14T00:04:56.585Z,4.40
2024-04-14T00:05:06.666Z,5.70
2024-04-14T00:05:26.495Z,3.80
2024-04-14T00:05:36.547Z,4.30
2024-04-14T00:05:46.445Z,4.70
2024-04-14T00:05:56.470Z,5.40
2024-04-14T00:06:06.496Z,5.40
2024-04-14T00:06:16.458Z,5.40
2024-04-14T00:06:26.558Z,6.20
2024-04-14T00:06:46.544Z,6.20
2024-04-14T00:06:56.691Z,5.70
2024-04-14T00:07:06.518Z,5.50
2024-04-14T00:07:16.444Z,5.20
2024-04-14T00:07:26.444Z,4.60
2024-04-14T00:07:36.463Z,4.60
2024-04-14T00:07:56.447Z,7.10
2024-04-14T00:08:06.533Z,4.90
2024-04-14T00:08:16.504Z,4.70
2024-04-14T00:08:29.328Z,4.60
2024-04-14T00:08:36.455Z,6.10
2024-04-14T00:08:46.425Z,9.60
2024-04-14T00:09:06.614Z,5.10
2024-04-14T00:09:16.434Z,3.00
2024-04-14T00:09:26.486Z,2.80
2024-04-14T00:09:36.509Z,3.10
2024-04-14T00:09:46.498Z,3.20
2024-04-14T00:09:56.487Z,3.60
2024-04-14T00:10:16.438Z,4.00
2024-04-14T00:10:27.421Z,4.50
2024-04-14T00:10:36.439Z,4.90
2024-04-14T00:10:46.595Z,4.10
2024-04-14T00:10:56.476Z,3.90
2024-04-14T00:11:06.450Z,3.80
2024-04-14T00:11:16.580Z,3.80
2024-04-14T00:11:36.445Z,4.40
2024-04-14T00:11:46.489Z,4.30
2024-04-14T00:11:56.414Z,4.50
2024-04-14T00:12:06.441Z,3.60
2024-04-14T00:12:16.464Z,3.30
2024-04-14T00:12:26.451Z,3.10
2024-04-14T00:12:46.442Z,5.80
2024-04-14T00:12:56.530Z,5.70
2024-04-14T00:13:06.478Z,5.50
2024-04-14T00:13:16.439Z,3.20
2024-04-14T00:13:26.425Z,4.10
2024-04-14T00:13:36.455Z,4.10
2024-04-14T00:13:46.462Z,4.20
2024-04-14T00:14:06.435Z,2.60
2024-04-14T00:14:16.445Z,2.50
2024-04-14T00:14:26.458Z,2.30
2024-04-14T00:14:36.445Z,2.20
2024-04-14T00:14:47.282Z,1.90
2024-04-14T00:14:56.428Z,1.80
2024-04-14T00:15:07.275Z,1.60
2024-04-14T00:15:16.528Z,3.20
2024-04-14T00:15:36.453Z,6.90
2024-04-14T00:15:46.460Z,4.80
2024-04-14T00:15:56.511Z,8.20
2024-04-14T00:16:06.469Z,4.90
2024-04-14T00:16:17.258Z,4.70
2024-04-14T00:16:26.518Z,2.40
2024-04-14T00:16:46.422Z,4.10
2024-04-14T00:16:56.436Z,4.20
2024-04-14T00:17:06.452Z,4.30
2024-04-14T00:17:16.483Z,5.50
2024-04-14T00:17:26.544Z,8.00
2024-04-14T00:17:36.529Z,8.00
2024-04-14T00:17:56.468Z,2.20
2024-04-14T00:18:06.602Z,3.40
2024-04-14T00:18:16.490Z,3.40
2024-04-14T00:18:26.534Z,11.20
2024-04-14T00:18:36.553Z,9.00
2024-04-14T00:18:46.624Z,9.10
2024-04-14T00:18:56.507Z,4.80
2024-04-14T00:19:17.376Z,4.70
2024-04-14T00:19:26.396Z,2.50
2024-04-14T00:19:36.541Z,3.00
2024-04-14T00:19:46.429Z,3.00
2024-04-14T00:19:56.378Z,7.30
2024-04-14T00:20:06.426Z,5.00
2024-04-14T00:20:26.407Z,2.40
2024-04-14T00:20:36.404Z,4.80
2024-04-14T00:20:47.226Z,4.40
2024-04-14T00:20:56.368Z,7.20
2024-04-14T00:21:06.420Z,7.20
2024-04-14T00:21:16.390Z,7.60
2024-04-14T00:21:26.451Z,7.20
2024-04-14T00:21:36.568Z,3.60
2024-04-14T00:21:56.487Z,3.10
2024-04-14T00:22:06.422Z,6.10
2024-04-14T00:22:16.383Z,6.30
2024-04-14T00:22:26.369Z,4.10
2024-04-14T00:22:36.598Z,2.00
2024-04-14T00:22:46.434Z,1.90
2024-04-14T00:22:57.276Z,3.40
2024-04-14T00:23:16.380Z,5.50
2024-04-14T00:23:27.277Z,3.50
2024-04-14T00:23:36.474Z,6.40
2024-04-14T00:23:46.360Z,4.10
2024-04-14T00:23:56.420Z,3.70
2024-04-14T00:24:06.373Z,1.90
2024-04-14T00:24:26.395Z,4.10
2024-04-14T00:24:36.473Z,9.30
2024-04-14T00:24:46.436Z,9.70
2024-04-14T00:24:56.474Z,9.40
2024-04-14T00:25:07.278Z,4.10
2024-04-14T00:25:16.425Z,2.20
2024-04-14T00:25:26.403Z,1.90
2024-04-14T00:25:36.433Z,2.20
2024-04-14T00:25:56.380Z,3.10
2024-04-14T00:26:06.412Z,2.90
2024-04-14T00:26:16.396Z,2.20
2024-04-14T00:26:26.375Z,1.90
2024-04-14T00:26:36.342Z,3.00
2024-04-14T00:26:46.391Z,3.00
2024-04-14T00:27:06.452Z,1.90
2024-04-14T00:27:16.379Z,1.80
2024-04-14T00:27:26.358Z,1.70
2024-04-14T00:27:36.419Z,4.40
2024-04-14T00:27:46.552Z,4.50
2024-04-14T00:27:56.473Z,4.50
2024-04-14T00:28:16.384Z,2.20
2024-04-14T00:28:26.384Z,2.20
2024-04-14T00:28:36.375Z,3.90
2024-04-14T00:28:46.445Z,6.80
2024-04-14T00:28:56.343Z,6.90
2024-04-14T00:29:06.347Z,8.50
2024-04-14T00:29:16.397Z,8.80
2024-04-14T00:29:36.334Z,4.30
2024-04-14T00:29:46.381Z,1.70
2024-04-14T00:29:56.341Z,1.80
2024-04-14T00:30:06.357Z,2.40
2024-04-14T00:30:16.376Z,4.00
2024-04-14T00:30:26.366Z,6.80
2024-04-14T00:30:36.418Z,6.80
2024-04-14T00:30:57.315Z,2.30
2024-04-14T00:31:06.388Z,3.80
2024-04-14T00:31:17.249Z,3.80
2024-04-14T00:31:26.368Z,3.70
2024-04-14T00:31:36.394Z,2.00
2024-04-14T00:31:46.383Z,2.10
2024-04-14T00:32:06.373Z,9.80
2024-04-14T00:32:16.338Z,9.90
2024-04-14T00:32:26.394Z,7.70
2024-04-14T00:32:36.433Z,2.20
2024-04-14T00:32:46.356Z,2.30
2024-04-14T00:32:56.451Z,2.30
2024-04-14T00:33:16.527Z,2.10
2024-04-14T00:33:26.359Z,2.10
2024-04-14T00:33:36.532Z,6.80
2024-04-14T00:33:46.456Z,6.90
2024-04-14T00:33:56.440Z,9.90
2024-04-14T00:34:06.491Z,7.10
2024-04-14T00:34:16.376Z,7.00
2024-04-14T00:34:26.329Z,4.30
2024-04-14T00:34:46.371Z,2.40
2024-04-14T00:34:56.349Z,3.30
2024-04-14T00:35:07.419Z,6.50
2024-04-14T00:35:16.336Z,6.60
2024-04-14T00:35:26.335Z,4.20
2024-04-14T00:35:37.397Z,1.70
2024-04-14T00:35:57.366Z,2.20
2024-04-14T00:36:06.500Z,2.30
2024-04-14T00:36:16.514Z,2.10
2024-04-14T00:36:26.324Z,2.00
2024-04-14T00:36:37.303Z,1.80
2024-04-14T00:36:46.344Z,1.80
2024-04-14T00:37:06.323Z,1.60
2024-04-14T00:37:16.379Z,4.70
2024-04-14T00:37:26.313Z,4.80
2024-04-14T00:37:36.345Z,4.90
2024-04-14T00:37:46.329Z,3.60
2024-04-14T00:37:56.340Z,6.50
2024-04-14T00:38:06.454Z,6.20
2024-04-14T00:38:26.312Z,8.20
2024-04-14T00:38:37.237Z,11.60
2024-04-14T00:38:46.373Z,4.50
2024-04-14T00:38:56.305Z,6.90
2024-04-14T00:39:06.290Z,3.60
2024-04-14T00:39:16.316Z,6.00
2024-04-14T00:39:36.324Z,8.30
2024-04-14T00:39:46.369Z,7.90
2024-04-14T00:39:56.343Z,5.40
2024-04-14T00:40:06.337Z,6.90
2024-04-14T00:40:16.287Z,4.70
2024-04-14T00:40:26.323Z,4.70
2024-04-14T00:40:36.328Z,1.90
2024-04-14T00:40:56.325Z,3.40
2024-04-14T00:41:06.325Z,6.30
2024-04-14T00:41:16.282Z,6.40
2024-04-14T00:41:26.297Z,7.30
2024-04-14T00:41:36.313Z,4.40
2024-04-14T00:41:46.306Z,4.40
2024-04-14T00:42:06.316Z,6.10
2024-04-14T00:42:16.334Z,8.20
2024-04-14T00:42:26.299Z,5.80
2024-04-14T00:42:36.359Z,5.30
2024-04-14T00:42:46.394Z,3.30
2024-04-14T00:42:56.377Z,3.40
2024-04-14T00:43:06.363Z,2.20
2024-04-14T00:43:16.819Z,2.10
2024-04-14T00:43:36.282Z,2.20
2024-04-14T00:43:46.272Z,2.00
2024-04-14T00:43:56.293Z,2.00
2024-04-14T00:44:06.272Z,1.90
2024-04-14T00:44:16.287Z,3.30
2024-04-14T00:44:26.432Z,3.40
2024-04-14T00:44:36.356Z,6.40
2024-04-14T00:44:56.268Z,4.10
2024-04-14T00:45:06.307Z,8.70
2024-04-14T00:45:16.266Z,8.60
2024-04-14T00:45:26.288Z,8.50
2024-04-14T00:45:36.295Z,2.30
2024-04-14T00:45:46.396Z,3.10
2024-04-14T00:45:56.366Z,3.10
2024-04-14T00:46:06.337Z,3.00
2024-04-14T00:46:26.321Z,2.30
2024-04-14T00:46:36.408Z,1.90
2024-04-14T00:46:46.299Z,2.20
2024-04-14T00:46:56.277Z,2.20
2024-04-14T00:47:06.271Z,2.30
2024-04-14T00:47:16.250Z,4.50
2024-04-14T00:47:36.308Z,4.00
2024-04-14T00:47:46.311Z,3.60
2024-04-14T00:47:57.388Z,6.20
2024-04-14T00:48:06.348Z,10.00
2024-04-14T00:48:16.432Z,7.50
2024-04-14T00:48:26.431Z,4.80
2024-04-14T00:48:37.463Z,2.30
2024-04-14T00:48:46.318Z,2.00
2024-04-14T00:48:57.511Z,3.70
2024-04-14T00:49:16.326Z,3.80
2024-04-14T00:49:26.412Z,2.20
2024-04-14T00:49:36.237Z,1.90
2024-04-14T00:49:46.269Z,1.90
2024-04-14T00:49:56.351Z,1.30
2024-04-14T00:50:06.265Z,4.00
2024-04-14T00:50:16.354Z,15.00
2024-04-14T00:50:36.320Z,15.30
2024-04-14T00:50:46.239Z,4.00
2024-04-14T00:50:56.270Z,3.80
2024-04-14T00:51:06.261Z,1.40
2024-04-14T00:51:16.279Z,1.60
2024-04-14T00:51:26.297Z,1.90
2024-04-14T00:51:46.273Z,2.00
2024-04-14T00:51:56.286Z,1.50
2024-04-14T00:52:06.259Z,1.50
2024-04-14T00:52:16.291Z,4.10
2024-04-14T00:52:26.273Z,4.40
2024-04-14T00:52:36.890Z,4.20
2024-04-14T00:52:56.257Z,4.20
2024-04-14T00:53:06.338Z,4.10
2024-04-14T00:53:16.247Z,4.30
2024-04-14T00:53:26.251Z,1.80
2024-04-14T00:53:36.370Z,1.90
2024-04-14T00:53:46.265Z,2.10
2024-04-14T00:53:56.288Z,4.30
2024-04-14T00:54:16.254Z,6.50
2024-04-14T00:54:26.271Z,2.80
2024-04-14T00:54:36.299Z,1.50
2024-04-14T00:54:46.391Z,1.50
2024-04-14T00:54:56.449Z,3.40
2024-04-14T00:55:06.370Z,3.50
2024-04-14T00:55:26.228Z,2.10
2024-04-14T00:55:36.260Z,1.90
2024-04-14T00:55:46.226Z,1.80
2024-04-14T00:55:56.232Z,1.40
2024-04-14T00:56:06.238Z,1.70
2024-04-14T00:56:16.236Z,1.90
2024-04-14T00:56:26.294Z,2.10
2024-04-14T00:56:46.281Z,2.20
2024-04-14T00:56:56.216Z,1.90
2024-04-14T00:57:06.254Z,1.50
2024-04-14T00:57:16.254Z,1.60
2024-04-14T00:57:26.242Z,1.60
2024-04-14T00:57:36.248Z,1.60
2024-04-14T00:57:56.286Z,2.00
2024-04-14T00:58:06.311Z,3.10
2024-04-14T00:58:16.231Z,3.30
2024-04-14T00:58:26.787Z,3.20
2024-04-14T00:58:36.319Z,1.80
2024-04-14T00:58:46.280Z,1.50
2024-04-14T00:58:56.292Z,3.80
2024-04-14T00:59:06.345Z,9.10
2024-04-14T00:59:16.211Z,9.00
2024-04-14T00:59:36.251Z,2.60
2024-04-14T00:59:46.206Z,2.90
2024-04-14T00:59:56.219Z,2.80
2024-04-14T01:00:06.264Z,2.00
2024-04-14T01:00:16.239Z,1.50
2024-04-14T01:00:26.301Z,1.60
2024-04-14T01:00:36.312Z,5.10
2024-04-14T01:00:46.352Z,5.20
2024-04-14T01:00:56.447Z,8.00
2024-04-14T01:01:16.837Z,7.00
2024-04-14T01:01:26.285Z,4.00
2024-04-14T01:01:36.235Z,1.50
2024-04-14T01:01:46.266Z,1.60
2024-04-14T01:01:56.242Z,1.60
2024-04-14T01:02:07.560Z,1.70
2024-04-14T01:02:26.251Z,3.80
2024-04-14T01:02:36.196Z,3.80
2024-04-14T01:02:46.308Z,1.90
2024-04-14T01:02:56.961Z,1.70
2024-04-14T01:03:06.254Z,4.50
2024-04-14T01:03:16.264Z,4.90
2024-04-14T01:03:26.434Z,4.80
2024-04-14T01:03:36.417Z,2.10
2024-04-14T01:03:56.369Z,1.70
2024-04-14T01:04:06.373Z,1.70
2024-04-14T01:04:16.365Z,2.00
2024-04-14T01:04:26.815Z,4.20
2024-04-14T01:04:36.341Z,4.20
2024-04-14T01:04:46.318Z,3.90
2024-04-14T01:05:06.261Z,2.30
2024-04-14T01:05:16.264Z,3.70
2024-04-14T01:05:26.196Z,3.70
2024-04-14T01:05:36.205Z,3.70
2024-04-14T01:05:46.771Z,1.50
2024-04-14T01:05:56.171Z,1.70
2024-04-14T01:06:16.183Z,2.20
2024-04-14T01:06:26.232Z,2.00
2024-04-14T01:06:36.295Z,3.30
2024-04-14T01:06:46.259Z,6.80
2024-04-14T01:06:56.410Z,6.90
2024-04-14T01:07:06.251Z,4.60
2024-04-14T01:07:16.272Z,6.10
2024-04-14T01:07:26.223Z,6.10
2024-04-14T01:07:46.215Z,9.40
2024-04-14T01:07:56.306Z,9.40
2024-04-14T01:08:06.214Z,6.80
2024-04-14T01:08:16.263Z,4.40
2024-04-14T01:08:26.279Z,4.50
2024-04-14T01:08:36.176Z,4.20
2024-04-14T01:08:46.762Z,1.20
2024-04-14T01:09:06.216Z,6.80
2024-04-14T01:09:16.768Z,6.80
2024-04-14T01:09:26.254Z,6.90
2024-04-14T01:09:36.276Z,1.80
2024-04-14T01:09:46.210Z,1.70
2024-04-14T01:09:56.336Z,1.60
2024-04-14T01:10:16.776Z,6.50
2024-04-14T01:10:26.165Z,6.50
2024-04-14T01:10:36.172Z,3.60
2024-04-14T01:10:46.185Z,4.10
2024-04-14T01:10:56.247Z,6.10
2024-04-14T01:11:06.229Z,6.00
2024-04-14T01:11:26.207Z,5.50
2024-04-14T01:11:36.178Z,5.50
2024-04-14T01:11:46.235Z,6.90
2024-04-14T01:11:56.194Z,6.70
2024-04-14T01:12:06.141Z,6.90
2024-04-14T01:12:16.180Z,3.70
2024-04-14T01:12:26.256Z,3.60
2024-04-14T01:12:46.219Z,3.70
2024-04-14T01:12:56.299Z,1.60
2024-04-14T01:13:06.198Z,1.40
2024-04-14T01:13:16.205Z,1.80
2024-04-14T01:13:26.211Z,4.40
2024-04-14T01:13:36.261Z,4.40
2024-04-14T01:13:46.204Z,4.30
2024-04-14T01:14:06.196Z,3.30
2024-04-14T01:14:16.366Z,3.30
2024-04-14T01:14:26.760Z,3.10
2024-04-14T01:14:36.176Z,1.50
2024-04-14T01:14:46.134Z,1.50
2024-04-14T01:14:56.160Z,1.60
2024-04-14T01:15:06.160Z,1.30
2024-04-14T01:15:26.149Z,1.10
2024-04-14T01:15:36.217Z,1.20
2024-04-14T01:15:46.182Z,1.30
2024-04-14T01:15:56.285Z,1.60
2024-04-14T01:16:06.275Z,3.80
2024-04-14T01:16:16.143Z,3.80
2024-04-14T01:16:26.171Z,3.80
2024-04-14T01:16:46.140Z,3.50
2024-04-14T01:16:56.142Z,3.50
2024-04-14T01:17:06.229Z,3.30
2024-04-14T01:17:16.221Z,1.60
2024-04-14T01:17:26.170Z,1.60
2024-04-14T01:17:36.959Z,1.60
2024-04-14T01:17:46.308Z,4.10
2024-04-14T01:17:56.355Z,4.10
2024-04-14T01:18:16.143Z,3.30
2024-04-14T01:18:26.207Z,5.40
2024-04-14T01:18:36.208Z,5.70
2024-04-14T01:18:46.193Z,3.20
2024-04-14T01:18:56.204Z,2.00
2024-04-14T01:19:06.281Z,1.70
2024-04-14T01:19:16.182Z,1.60
2024-04-14T01:19:26.170Z,1.70
2024-04-14T01:19:46.166Z,4.30
2024-04-14T01:19:56.156Z,4.40
2024-04-14T01:20:06.118Z,4.30
2024-04-14T01:20:16.179Z,1.30
2024-04-14T01:20:26.129Z,1.20
2024-04-14T01:20:36.138Z,3.20
2024-04-14T01:20:46.199Z,9.30
2024-04-14T01:21:06.150Z,10.70
2024-04-14T01:21:16.756Z,4.50
2024-04-14T01:21:26.218Z,4.60
2024-04-14T01:21:36.173Z,3.90
2024-04-14T01:21:46.920Z,4.10
2024-04-14T01:21:56.306Z,9.40
2024-04-14T01:22:06.165Z,6.40
2024-04-14T01:22:26.163Z,6.20
2024-04-14T01:22:36.131Z,9.20
2024-04-14T01:22:46.262Z,3.90
2024-04-14T01:22:56.122Z,4.10
2024-04-14T01:23:06.201Z,1.50
2024-04-14T01:23:16.172Z,1.50
2024-04-14T01:23:26.139Z,1.60
2024-04-14T01:23:46.145Z,1.30
2024-04-14T01:23:56.137Z,3.10
2024-04-14T01:24:06.127Z,3.00
2024-04-14T01:24:16.163Z,8.60
2024-04-14T01:24:26.230Z,8.80
2024-04-14T01:24:36.171Z,13.40
2024-04-14T01:24:57.811Z,5.60
2024-04-14T01:25:06.191Z,7.70
2024-04-14T01:25:16.174Z,15.20
2024-04-14T01:25:26.087Z,15.10
2024-04-14T01:25:36.192Z,8.60
2024-04-14T01:25:46.127Z,5.20
2024-04-14T01:25:56.111Z,5.10
2024-04-14T01:26:06.943Z,4.80
2024-04-14T01:26:26.093Z,3.20
2024-04-14T01:26:36.102Z,3.40
2024-04-14T01:26:46.157Z,1.60
2024-04-14T01:26:56.168Z,1.50
2024-04-14T01:27:06.124Z,2.70
2024-04-14T01:27:16.560Z,2.70
2024-04-14T01:27:26.874Z,2.80
2024-04-14T01:27:36.216Z,1.30
2024-04-14T01:27:56.858Z,5.40
2024-04-14T01:28:06.197Z,4.90
2024-04-14T01:28:16.129Z,1.60
2024-04-14T01:28:26.119Z,1.40
2024-04-14T01:28:36.076Z,1.60
2024-04-14T01:28:46.094Z,1.30
2024-04-14T01:29:06.093Z,1.30
2024-04-14T01:29:16.083Z,1.10
2024-04-14T01:29:26.117Z,1.10
2024-04-14T01:29:36.145Z,0.90
2024-04-14T01:29:46.312Z,1.20
2024-04-14T01:29:56.126Z,2.90
2024-04-14T01:30:06.102Z,3.10
2024-04-14T01:30:26.108Z,6.60
2024-04-14T01:30:36.113Z,6.50
2024-04-14T01:30:46.125Z,6.50
2024-04-14T01:30:56.134Z,2.90
2024-04-14T01:31:06.061Z,3.10
2024-04-14T01:31:16.845Z,1.30
2024-04-14T01:31:26.096Z,1.40
2024-04-14T01:31:46.092Z,3.50
2024-04-14T01:31:56.127Z,3.20
2024-04-14T01:32:06.162Z,3.40
2024-04-14T01:32:16.144Z,4.20
2024-04-14T01:32:26.110Z,6.80
2024-04-14T01:32:36.100Z,6.60
2024-04-14T01:32:56.250Z,0.90
2024-04-14T01:33:06.158Z,3.10
2024-04-14T01:33:16.058Z,3.30
2024-04-14T01:33:26.125Z,3.10
2024-04-14T01:33:36.092Z,1.00
2024-04-14T01:33:46.129Z,3.80
2024-04-14T01:34:06.757Z,3.70
2024-04-14T01:34:16.755Z,1.20
2024-04-14T01:34:26.764Z,3.10
2024-04-14T01:34:36.759Z,3.30
2024-04-14T01:34:46.057Z,3.40
2024-04-14T01:34:56.114Z,1.60
2024-04-14T01:35:16.086Z,1.60
2024-04-14T01:35:26.059Z,1.60
2024-04-14T01:35:36.100Z,3.60
2024-04-14T01:35:46.092Z,3.70
2024-04-14T01:35:56.087Z,6.90
2024-04-14T01:36:06.044Z,4.10
2024-04-14T01:36:16.071Z,4.00
2024-04-14T01:36:26.131Z,3.30
2024-04-14T01:36:36.852Z,3.20
2024-04-14T01:36:56.153Z,3.30
2024-04-14T01:37:06.041Z,5.80
2024-04-14T01:37:16.120Z,5.80
2024-04-14T01:37:26.050Z,3.20
2024-04-14T01:37:36.107Z,1.20
2024-04-14T01:37:46.056Z,2.90
2024-04-14T01:38:15.901Z,5.50
2024-04-14T01:38:22.105Z,3.40
2024-04-14T01:38:26.808Z,3.40
2024-04-14T01:38:36.044Z,1.20
2024-04-14T01:38:46.057Z,1.30
2024-04-14T01:38:56.043Z,1.20
2024-04-14T01:39:16.079Z,1.00
2024-04-14T01:39:26.192Z,0.90
2024-04-14T01:39:36.156Z,0.80
2024-04-14T01:39:46.041Z,4.20
2024-04-14T01:39:56.133Z,4.20
2024-04-14T01:40:06.083Z,4.20
2024-04-14T01:40:16.083Z,3.10
2024-04-14T01:40:26.101Z,6.50
2024-04-14T01:40:46.150Z,4.10
2024-04-14T01:40:56.043Z,5.30
2024-04-14T01:41:06.043Z,5.30
2024-04-14T01:41:16.094Z,5.60
2024-04-14T01:41:26.051Z,6.70
2024-04-14T01:41:36.077Z,6.80
2024-04-14T01:41:56.764Z,4.40
2024-04-14T01:42:06.056Z,4.40
2024-04-14T01:42:16.043Z,10.60
2024-04-14T01:42:26.046Z,7.30
2024-04-14T01:42:36.821Z,7.20
2024-04-14T01:42:46.056Z,1.00
2024-04-14T01:43:06.038Z,1.00
2024-04-14T01:43:16.032Z,1.00
2024-04-14T01:43:26.136Z,1.00
2024-04-14T01:43:36.053Z,0.90
2024-04-14T01:43:46.015Z,5.70
2024-04-14T01:43:56.018Z,5.90
2024-04-14T01:44:16.763Z,4.90
2024-04-14T01:44:26.848Z,4.70
2024-04-14T01:44:36.120Z,1.40
2024-04-14T01:44:46.049Z,1.30
2024-04-14T01:44:56.012Z,3.40
2024-04-14T01:45:06.001Z,3.60
2024-04-14T01:45:17.251Z,8.60
2024-04-14T01:45:36.107Z,11.40
2024-04-14T01:45:46.118Z,12.20
2024-04-14T01:45:56.084Z,9.10
2024-04-14T01:46:06.055Z,9.10
2024-04-14T01:46:16.010Z,6.20
2024-04-14T01:46:25.996Z,6.20
2024-04-14T01:46:46.764Z,1.30
2024-04-14T01:46:56.002Z,4.00
2024-04-14T01:47:06.045Z,3.80
2024-04-14T01:47:16.019Z,4.20
2024-04-14T01:47:26.057Z,1.20
2024-04-14T01:47:36.116Z,1.30
2024-04-14T01:47:56.099Z,1.70
2024-04-14T01:48:06.180Z,6.60
2024-04-14T01:48:16.151Z,6.40
2024-04-14T01:48:26.081Z,6.30
2024-04-14T01:48:36.141Z,0.80
2024-04-14T01:48:46.208Z,0.80
2024-04-14T01:48:56.206Z,1.00
2024-04-14T01:49:06.177Z,1.10
2024-04-14T01:49:16.175Z,1.30
2024-04-14T01:49:26.089Z,1.20
2024-04-14T01:49:46.035Z,1.00
2024-04-14T01:49:56.011Z,1.00
2024-04-14T01:50:06.034Z,1.20
2024-04-14T01:50:15.999Z,1.20
2024-04-14T01:50:26.093Z,1.10
2024-04-14T01:50:36.106Z,1.10
2024-04-14T01:50:46.043Z,1.00
2024-04-14T01:50:56.784Z,1.30
2024-04-14T01:51:16.064Z,5.30
2024-04-14T01:51:26.020Z,5.20
2024-04-14T01:51:36.025Z,2.80
2024-04-14T01:51:46.010Z,1.10
2024-04-14T01:51:56.036Z,1.40
2024-04-14T01:52:06.014Z,1.80
2024-04-14T01:52:26.798Z,1.60
2024-04-14T01:52:36.796Z,3.60
2024-04-14T01:52:45.996Z,3.60
2024-04-14T01:52:56.789Z,3.60
2024-04-14T01:53:06.047Z,3.80
2024-04-14T01:53:15.998Z,3.70
2024-04-14T01:53:36.058Z,3.30
2024-04-14T01:53:45.968Z,3.50
2024-04-14T01:53:56.841Z,3.40
2024-04-14T01:54:06.791Z,0.90
2024-04-14T01:54:16.005Z,0.70
2024-04-14T01:54:26.070Z,3.70
2024-04-14T01:54:36.083Z,6.70
2024-04-14T01:54:46.019Z,14.40
2024-04-14T01:55:06.782Z,11.40
2024-04-14T01:55:15.955Z,3.70
2024-04-14T01:55:26.158Z,3.90
2024-04-14T01:55:36.059Z,1.20
2024-04-14T01:55:46.032Z,1.20
2024-04-14T01:55:55.965Z,1.20
2024-04-14T01:56:16.105Z,5.90
2024-04-14T01:56:25.960Z,8.40
2024-04-14T01:56:35.959Z,8.30
2024-04-14T01:56:45.986Z,3.50
2024-04-14T01:56:55.949Z,5.60
2024-04-14T01:57:06.000Z,5.90
2024-04-14T01:57:25.983Z,1.20
2024-04-14T01:57:36.027Z,1.30
2024-04-14T01:57:46.002Z,1.40
2024-04-14T01:57:56.098Z,1.20
2024-04-14T01:58:06.051Z,1.00
2024-04-14T01:58:16.008Z,0.90
2024-04-14T01:58:25.966Z,1.00
2024-04-14T01:58:45.979Z,1.40
2024-04-14T01:58:55.955Z,1.30
2024-04-14T01:59:06.015Z,1.40
2024-04-14T01:59:16.754Z,1.10
2024-04-14T01:59:25.978Z,1.00
2024-04-14T01:59:36.126Z,0.90
2024-04-14T01:59:56.033Z,1.00
2024-04-14T02:00:05.979Z,3.30
2024-04-14T02:00:15.949Z,3.30
2024-04-14T02:00:26.023Z,3.50
2024-04-14T02:00:36.068Z,1.20
2024-04-14T02:00:46.176Z,1.30
2024-04-14T02:01:05.992Z,1.40
2024-04-14T02:01:16.028Z,1.30
2024-04-14T02:01:26.132Z,1.10
2024-04-14T02:01:36.020Z,2.60
2024-04-14T02:01:46.116Z,4.70
2024-04-14T02:01:56.003Z,6.90
2024-04-14T02:02:05.986Z,5.00
2024-04-14T02:02:25.970Z,1.20
2024-04-14T02:02:36.037Z,1.10
2024-04-14T02:02:45.993Z,1.10
2024-04-14T02:02:56.069Z,0.90
2024-04-14T02:03:06.000Z,4.20
2024-04-14T02:03:16.837Z,6.40
2024-04-14T02:03:26.894Z,9.10
2024-04-14T02:03:36.173Z,5.60
2024-04-14T02:03:56.042Z,1.10
2024-04-14T02:04:06.130Z,4.50
2024-04-14T02:04:26.012Z,7.40
2024-04-14T02:04:35.995Z,3.80
2024-04-14T02:04:46.159Z,1.20
2024-04-14T02:04:55.968Z,3.30
2024-04-14T02:05:15.994Z,3.80
2024-04-14T02:05:25.932Z,1.30
2024-04-14T02:05:35.984Z,1.40
2024-04-14T02:05:45.981Z,1.80
2024-04-14T02:05:56.005Z,1.70
2024-04-14T02:06:05.999Z,3.40
2024-04-14T02:06:16.013Z,5.90
2024-04-14T02:06:35.956Z,7.10
2024-04-14T02:06:46.020Z,4.50
2024-04-14T02:06:56.065Z,4.50
2024-04-14T02:07:06.061Z,3.40
2024-04-14T02:07:16.050Z,3.60
2024-04-14T02:07:25.995Z,3.80
2024-04-14T02:07:36.831Z,1.40
2024-04-14T02:07:46.065Z,1.50
2024-04-14T02:07:55.918Z,3.60
2024-04-14T02:08:15.935Z,3.30
2024-04-14T02:08:25.948Z,1.10
2024-04-14T02:08:35.912Z,1.20
2024-04-14T02:08:45.909Z,1.10
2024-04-14T02:08:56.005Z,1.00
2024-04-14T02:09:06.790Z,0.90
2024-04-14T02:09:26.944Z,1.00
2024-04-14T02:09:35.949Z,1.10
2024-04-14T02:09:46.174Z,2.60
2024-04-14T02:09:55.958Z,2.60
2024-04-14T02:10:05.986Z,2.80
2024-04-14T02:10:15.921Z,1.20
2024-04-14T02:10:35.955Z,3.10
2024-04-14T02:10:46.834Z,3.10
2024-04-14T02:10:55.940Z,3.10
2024-04-14T02:11:06.012Z,1.00
2024-04-14T02:11:15.936Z,1.00
2024-04-14T02:11:25.959Z,1.00
2024-04-14T02:11:46.783Z,1.00
2024-04-14T02:11:55.897Z,3.00
2024-04-14T02:12:05.891Z,3.10
2024-04-14T02:12:15.903Z,8.50
2024-04-14T02:12:25.992Z,9.70
2024-04-14T02:12:35.915Z,9.60
2024-04-14T02:12:55.941Z,3.30
2024-04-14T02:13:05.934Z,6.40
2024-04-14T02:13:16.000Z,8.60
2024-04-14T02:13:25.933Z,6.00
2024-04-14T02:13:35.974Z,3.00
2024-04-14T02:13:46.855Z,1.00
2024-04-14T02:13:56.050Z,1.20
2024-04-14T02:14:05.926Z,1.20
2024-04-14T02:14:25.878Z,1.10
2024-04-14T02:14:35.993Z,1.20
2024-04-14T02:14:45.895Z,1.10
2024-04-14T02:14:55.885Z,1.20
2024-04-14T02:15:05.888Z,1.20
2024-04-14T02:15:15.913Z,1.10
2024-04-14T02:15:25.982Z,1.10
2024-04-14T02:15:45.958Z,6.90
2024-04-14T02:15:56.881Z,6.90
2024-04-14T02:16:06.868Z,9.70
2024-04-14T02:16:16.015Z,3.70
2024-04-14T02:16:25.868Z,3.70
2024-04-14T02:16:35.924Z,1.70
2024-04-14T02:16:55.899Z,1.20
2024-04-14T02:17:05.885Z,1.20
2024-04-14T02:17:15.949Z,1.20
2024-04-14T02:17:25.913Z,4.00
2024-04-14T02:17:35.963Z,3.70
2024-04-14T02:17:46.196Z,7.20
2024-04-14T02:17:56.047Z,4.60
2024-04-14T02:18:06.107Z,4.40
2024-04-14T02:18:25.943Z,1.10
2024-04-14T02:18:35.944Z,1.10
2024-04-14T02:18:45.949Z,1.00
2024-04-14T02:18:56.006Z,3.60
2024-04-14T02:19:05.917Z,3.90
2024-04-14T02:19:16.953Z,4.20
2024-04-14T02:19:25.961Z,1.30
2024-04-14T02:19:35.895Z,1.20
2024-04-14T02:19:55.872Z,1.10
2024-04-14T02:20:06.768Z,1.20
2024-04-14T02:20:16.144Z,3.00
2024-04-14T02:20:25.880Z,2.90
2024-04-14T02:20:35.879Z,3.00
2024-04-14T02:20:45.868Z,1.10
2024-04-14T02:21:05.903Z,1.10
2024-04-14T02:21:15.893Z,1.20
2024-04-14T02:21:25.973Z,1.10
2024-04-14T02:21:35.930Z,1.10
2024-04-14T02:21:45.939Z,1.00
2024-04-14T02:21:55.925Z,1.00
2024-04-14T02:22:15.945Z,1.00
2024-04-14T02:22:25.845Z,0.90
2024-04-14T02:22:35.858Z,0.80
2024-04-14T02:22:45.850Z,0.80
2024-04-14T02:22:55.865Z,1.10
2024-04-14T02:23:05.976Z,1.10
2024-04-14T02:23:25.835Z,1.10
2024-04-14T02:23:35.927Z,1.40
2024-04-14T02:23:45.872Z,4.40
2024-04-14T02:23:55.842Z,4.20
2024-04-14T02:24:05.887Z,4.10
2024-04-14T02:24:18.797Z,1.00
2024-04-14T02:24:36.094Z,1.00
2024-04-14T02:24:47.900Z,1.10
2024-04-14T02:24:55.913Z,1.00
2024-04-14T02:25:05.908Z,1.10
2024-04-14T02:25:16.010Z,3.50
2024-04-14T02:25:25.838Z,3.60
2024-04-14T02:25:45.877Z,3.10
2024-04-14T02:25:55.854Z,3.20
2024-04-14T02:26:05.902Z,3.00
2024-04-14T02:26:15.845Z,1.00
2024-04-14T02:26:25.936Z,1.00
2024-04-14T02:26:35.887Z,1.00
2024-04-14T02:26:45.912Z,1.10
2024-04-14T02:27:05.840Z,5.50
2024-04-14T02:27:16.821Z,5.50
2024-04-14T02:27:25.875Z,2.90
2024-04-14T02:27:35.919Z,1.00
2024-04-14T02:27:45.844Z,5.10
2024-04-14T02:27:55.916Z,5.20
2024-04-14T02:28:05.939Z,5.20
2024-04-14T02:28:26.836Z,1.10
2024-04-14T02:28:35.954Z,1.20
2024-04-14T02:28:45.872Z,3.40
2024-04-14T02:28:55.838Z,3.40
2024-04-14T02:29:05.877Z,5.60
2024-04-14T02:29:15.907Z,5.80
2024-04-14T02:29:35.847Z,3.60
2024-04-14T02:29:45.828Z,3.00
2024-04-14T02:29:55.821Z,3.00
2024-04-14T02:30:05.809Z,2.90
2024-04-14T02:30:15.831Z,1.50
2024-04-14T02:30:25.901Z,1.00
2024-04-14T02:30:35.928Z,1.10
2024-04-14T02:30:45.867Z,1.10
2024-04-14T02:30:56.003Z,1.20
2024-04-14T02:31:15.936Z,7.50
2024-04-14T02:31:25.821Z,10.00
2024-04-14T02:31:35.807Z,3.30
2024-04-14T02:31:45.889Z,3.40
2024-04-14T02:31:55.867Z,1.40
2024-04-14T02:32:05.873Z,1.30
2024-04-14T02:32:25.979Z,0.90
2024-04-14T02:32:36.081Z,1.20
2024-04-14T02:32:46.746Z,1.40